sensor_id;sensor_type;location;lat;lon;timestamp;pressure;altitude;pressure_sealevel;temperature;humidity
80745;BME280;70143;52.396;16.950;2023-05-17T00:00:13;100689.53;;;10.53;77.48
80745;BME280;70143;52.396;16.950;2023-05-17T00:02:39;100672.94;;;10.54;77.03
80745;BME280;70143;52.396;16.950;2023-05-17T00:05:05;100669.63;;;10.47;76.63
80745;BME280;70143;52.396;16.950;2023-05-17T00:07:31;100677.38;;;10.51;77.08
80745;BME280;70143;52.396;16.950;2023-05-17T00:09:57;100667.06;;;10.46;76.83
80745;BME280;70143;52.396;16.950;2023-05-17T00:12:23;100679.09;;;10.52;77.27
80745;BME280;70143;52.396;16.950;2023-05-17T00:14:48;100682.78;;;10.44;77.67
80745;BME280;70143;52.396;16.950;2023-05-17T00:17:14;100682.13;;;10.38;77.17
80745;BME280;70143;52.396;16.950;2023-05-17T00:19:39;100691.56;;;10.43;77.64
80745;BME280;70143;52.396;16.950;2023-05-17T00:22:05;100692.63;;;10.36;76.82
80745;BME280;70143;52.396;16.950;2023-05-17T00:24:30;100704.13;;;10.29;77.39
80745;BME280;70143;52.396;16.950;2023-05-17T00:26:55;100694.59;;;10.26;77.10
80745;BME280;70143;52.396;16.950;2023-05-17T00:29:21;100698.38;;;10.16;76.83
80745;BME280;70143;52.396;16.950;2023-05-17T00:31:46;100676.59;;;10.16;76.91
80745;BME280;70143;52.396;16.950;2023-05-17T00:34:13;100681.84;;;10.14;77.05
80745;BME280;70143;52.396;16.950;2023-05-17T00:36:38;100689.03;;;10.07;75.82
80745;BME280;70143;52.396;16.950;2023-05-17T00:39:04;100681.06;;;10.12;75.68
80745;BME280;70143;52.396;16.950;2023-05-17T00:41:29;100682.31;;;9.97;75.50
80745;BME280;70143;52.396;16.950;2023-05-17T00:43:54;100683.38;;;9.90;76.38
80745;BME280;70143;52.396;16.950;2023-05-17T00:46:20;100664.28;;;9.88;75.52
80745;BME280;70143;52.396;16.950;2023-05-17T00:48:45;100658.84;;;9.61;75.99
80745;BME280;70143;52.396;16.950;2023-05-17T00:51:12;100689.97;;;9.70;76.12
80745;BME280;70143;52.396;16.950;2023-05-17T00:53:38;100693.50;;;9.69;75.14
80745;BME280;70143;52.396;16.950;2023-05-17T00:56:04;100696.09;;;9.69;75.56
80745;BME280;70143;52.396;16.950;2023-05-17T00:58:30;100694.97;;;9.80;75.28
80745;BME280;70143;52.396;16.950;2023-05-17T01:00:58;100703.81;;;9.74;73.94
80745;BME280;70143;52.396;16.950;2023-05-17T01:03:23;100698.78;;;9.66;73.42
80745;BME280;70143;52.396;16.950;2023-05-17T01:05:51;100702.97;;;9.72;73.42
80745;BME280;70143;52.396;16.950;2023-05-17T01:08:17;100708.41;;;9.64;73.16
80745;BME280;70143;52.396;16.950;2023-05-17T01:13:26;100710.59;;;9.47;72.93
80745;BME280;70143;52.396;16.950;2023-05-17T01:16:07;100705.41;;;9.45;72.71
80745;BME280;70143;52.396;16.950;2023-05-17T01:18:40;100705.09;;;9.57;71.45
80745;BME280;70143;52.396;16.950;2023-05-17T01:26:40;100733.28;;;9.43;69.29
80745;BME280;70143;52.396;16.950;2023-05-17T01:29:08;100714.31;;;9.36;68.90
80745;BME280;70143;52.396;16.950;2023-05-17T01:31:37;100717.88;;;9.32;68.11
80745;BME280;70143;52.396;16.950;2023-05-17T01:34:07;100711.84;;;9.30;68.53
80745;BME280;70143;52.396;16.950;2023-05-17T01:36:33;100713.78;;;9.22;68.30
80745;BME280;70143;52.396;16.950;2023-05-17T01:38:58;100698.16;;;9.19;68.99
80745;BME280;70143;52.396;16.950;2023-05-17T01:41:38;100711.38;;;9.11;67.43
80745;BME280;70143;52.396;16.950;2023-05-17T01:47:34;100741.13;;;9.05;67.36
80745;BME280;70143;52.396;16.950;2023-05-17T01:50:02;100713.19;;;9.09;67.84
80745;BME280;70143;52.396;16.950;2023-05-17T01:52:49;100713.28;;;9.04;67.50
80745;BME280;70143;52.396;16.950;2023-05-17T01:58:06;100710.88;;;8.95;67.67
80745;BME280;70143;52.396;16.950;2023-05-17T02:00:33;100732.78;;;8.88;68.21
80745;BME280;70143;52.396;16.950;2023-05-17T02:02:59;100725.16;;;8.79;68.65
80745;BME280;70143;52.396;16.950;2023-05-17T02:05:24;100707.75;;;8.78;68.38
80745;BME280;70143;52.396;16.950;2023-05-17T02:07:50;100718.34;;;8.72;68.88
80745;BME280;70143;52.396;16.950;2023-05-17T02:10:15;100727.84;;;8.74;68.36
80745;BME280;70143;52.396;16.950;2023-05-17T02:12:41;100717.34;;;8.77;67.49
80745;BME280;70143;52.396;16.950;2023-05-17T02:15:07;100718.41;;;8.68;68.70
80745;BME280;70143;52.396;16.950;2023-05-17T02:17:33;100720.25;;;8.63;67.20
80745;BME280;70143;52.396;16.950;2023-05-17T02:19:58;100732.28;;;8.69;68.11
80745;BME280;70143;52.396;16.950;2023-05-17T02:22:25;100722.00;;;8.61;68.08
80745;BME280;70143;52.396;16.950;2023-05-17T02:24:50;100719.69;;;8.47;68.36
80745;BME280;70143;52.396;16.950;2023-05-17T02:27:15;100720.47;;;8.52;68.43
80745;BME280;70143;52.396;16.950;2023-05-17T02:29:41;100731.78;;;8.51;68.77
80745;BME280;70143;52.396;16.950;2023-05-17T02:32:06;100732.69;;;8.49;68.85
80745;BME280;70143;52.396;16.950;2023-05-17T02:34:32;100741.38;;;8.51;69.13
80745;BME280;70143;52.396;16.950;2023-05-17T02:36:57;100749.16;;;8.52;68.89
80745;BME280;70143;52.396;16.950;2023-05-17T02:39:22;100755.22;;;8.53;69.54
80745;BME280;70143;52.396;16.950;2023-05-17T02:41:49;100766.63;;;8.47;69.60
80745;BME280;70143;52.396;16.950;2023-05-17T02:44:14;100768.38;;;8.47;69.22
80745;BME280;70143;52.396;16.950;2023-05-17T02:46:41;100786.50;;;8.53;69.60
80745;BME280;70143;52.396;16.950;2023-05-17T02:49:07;100784.84;;;8.49;69.35
80745;BME280;70143;52.396;16.950;2023-05-17T02:51:33;100780.69;;;8.35;69.60
80745;BME280;70143;52.396;16.950;2023-05-17T02:53:59;100787.56;;;8.41;69.64
80745;BME280;70143;52.396;16.950;2023-05-17T02:56:24;100764.94;;;8.46;69.19
80745;BME280;70143;52.396;16.950;2023-05-17T02:58:50;100760.63;;;8.41;69.14
80745;BME280;70143;52.396;16.950;2023-05-17T03:01:15;100750.38;;;8.31;69.28
80745;BME280;70143;52.396;16.950;2023-05-17T03:03:41;100765.00;;;8.39;68.90
80745;BME280;70143;52.396;16.950;2023-05-17T03:06:08;100748.84;;;8.21;68.84
80745;BME280;70143;52.396;16.950;2023-05-17T03:08:34;100740.97;;;8.23;69.71
80745;BME280;70143;52.396;16.950;2023-05-17T03:10:59;100755.72;;;8.25;69.57
80745;BME280;70143;52.396;16.950;2023-05-17T03:13:25;100764.50;;;8.20;69.06
80745;BME280;70143;52.396;16.950;2023-05-17T03:15:51;100768.88;;;8.17;69.12
80745;BME280;70143;52.396;16.950;2023-05-17T03:18:16;100798.34;;;8.21;69.05
80745;BME280;70143;52.396;16.950;2023-05-17T03:20:42;100783.81;;;8.08;69.60
80745;BME280;70143;52.396;16.950;2023-05-17T03:23:07;100787.34;;;8.04;69.49
80745;BME280;70143;52.396;16.950;2023-05-17T03:25:33;100786.53;;;8.02;70.18
80745;BME280;70143;52.396;16.950;2023-05-17T03:27:58;100774.38;;;8.00;69.57
80745;BME280;70143;52.396;16.950;2023-05-17T03:30:27;100782.97;;;8.07;70.08
80745;BME280;70143;52.396;16.950;2023-05-17T03:32:52;100785.66;;;8.03;69.50
80745;BME280;70143;52.396;16.950;2023-05-17T03:35:18;100793.31;;;8.10;69.66
80745;BME280;70143;52.396;16.950;2023-05-17T03:37:44;100789.69;;;8.21;69.22
80745;BME280;70143;52.396;16.950;2023-05-17T03:40:10;100791.53;;;8.14;68.86
80745;BME280;70143;52.396;16.950;2023-05-17T03:42:35;100801.13;;;8.12;69.61
80745;BME280;70143;52.396;16.950;2023-05-17T03:45:01;100808.09;;;8.10;69.71
80745;BME280;70143;52.396;16.950;2023-05-17T03:47:27;100821.13;;;8.08;69.31
80745;BME280;70143;52.396;16.950;2023-05-17T03:49:53;100821.97;;;8.12;69.83
80745;BME280;70143;52.396;16.950;2023-05-17T03:52:18;100811.66;;;8.06;69.32
80745;BME280;70143;52.396;16.950;2023-05-17T03:54:44;100823.63;;;8.16;68.83
80745;BME280;70143;52.396;16.950;2023-05-17T03:57:09;100823.66;;;8.14;68.88
80745;BME280;70143;52.396;16.950;2023-05-17T03:59:35;100834.25;;;8.04;69.59
80745;BME280;70143;52.396;16.950;2023-05-17T04:02:00;100836.94;;;7.99;69.82
80745;BME280;70143;52.396;16.950;2023-05-17T04:04:25;100837.84;;;7.96;70.28
80745;BME280;70143;52.396;16.950;2023-05-17T04:06:51;100832.75;;;7.90;70.00
80745;BME280;70143;52.396;16.950;2023-05-17T04:09:16;100841.28;;;7.98;69.48
80745;BME280;70143;52.396;16.950;2023-05-17T04:11:42;100829.13;;;7.97;68.88
80745;BME280;70143;52.396;16.950;2023-05-17T04:14:07;100829.97;;;8.01;69.58
80745;BME280;70143;52.396;16.950;2023-05-17T04:16:33;100816.81;;;8.09;69.51
80745;BME280;70143;52.396;16.950;2023-05-17T04:18:59;100816.91;;;8.03;69.70
80745;BME280;70143;52.396;16.950;2023-05-17T04:21:24;100824.66;;;8.07;68.95
80745;BME280;70143;52.396;16.950;2023-05-17T04:23:51;100825.38;;;8.15;68.25
80745;BME280;70143;52.396;16.950;2023-05-17T04:26:17;100831.25;;;8.28;68.34
80745;BME280;70143;52.396;16.950;2023-05-17T04:28:42;100824.59;;;8.10;68.69
80745;BME280;70143;52.396;16.950;2023-05-17T04:31:08;100824.41;;;8.23;68.60
80745;BME280;70143;52.396;16.950;2023-05-17T04:33:35;100834.75;;;8.26;68.31
80745;BME280;70143;52.396;16.950;2023-05-17T04:36:02;100831.56;;;8.08;68.65
80745;BME280;70143;52.396;16.950;2023-05-17T04:38:27;100812.78;;;7.89;69.09
80745;BME280;70143;52.396;16.950;2023-05-17T04:40:53;100823.06;;;7.97;69.50
80745;BME280;70143;52.396;16.950;2023-05-17T04:43:18;100826.59;;;7.94;69.55
80745;BME280;70143;52.396;16.950;2023-05-17T04:45:44;100829.16;;;7.96;69.11
80745;BME280;70143;52.396;16.950;2023-05-17T04:48:09;100838.69;;;7.98;69.04
80745;BME280;70143;52.396;16.950;2023-05-17T04:50:35;100838.72;;;7.97;68.79
80745;BME280;70143;52.396;16.950;2023-05-17T04:53:00;100831.84;;;7.91;69.82
80745;BME280;70143;52.396;16.950;2023-05-17T04:55:26;100837.72;;;8.06;69.34
80745;BME280;70143;52.396;16.950;2023-05-17T04:57:51;100837.75;;;8.03;69.48
80745;BME280;70143;52.396;16.950;2023-05-17T05:00:17;100848.03;;;8.12;69.12
80745;BME280;70143;52.396;16.950;2023-05-17T05:02:42;100847.88;;;8.21;69.39
80745;BME280;70143;52.396;16.950;2023-05-17T05:05:10;100838.31;;;8.22;69.92
80745;BME280;70143;52.396;16.950;2023-05-17T05:07:35;100846.03;;;8.26;69.55
80745;BME280;70143;52.396;16.950;2023-05-17T05:10:01;100851.25;;;8.26;69.54
80745;BME280;70143;52.396;16.950;2023-05-17T05:12:26;100850.09;;;8.43;68.96
80745;BME280;70143;52.396;16.950;2023-05-17T05:14:52;100846.53;;;8.51;68.63
80745;BME280;70143;52.396;16.950;2023-05-17T05:17:17;100841.34;;;8.50;68.87
80745;BME280;70143;52.396;16.950;2023-05-17T05:19:43;100856.00;;;8.57;68.92
80745;BME280;70143;52.396;16.950;2023-05-17T05:22:08;100858.06;;;8.85;69.02
80745;BME280;70143;52.396;16.950;2023-05-17T05:24:34;100857.31;;;8.80;68.52
80745;BME280;70143;52.396;16.950;2023-05-17T05:26:59;100853.66;;;8.88;68.13
80745;BME280;70143;52.396;16.950;2023-05-17T05:29:24;100864.00;;;8.93;68.53
80745;BME280;70143;52.396;16.950;2023-05-17T05:31:50;100862.91;;;9.05;67.22
80745;BME280;70143;52.396;16.950;2023-05-17T05:34:16;100858.63;;;9.02;67.63
80745;BME280;70143;52.396;16.950;2023-05-17T05:36:41;100875.09;;;9.04;67.81
80745;BME280;70143;52.396;16.950;2023-05-17T05:39:07;100865.28;;;9.16;68.19
80745;BME280;70143;52.396;16.950;2023-05-17T05:41:32;100872.25;;;9.17;67.13
80745;BME280;70143;52.396;16.950;2023-05-17T05:43:58;100864.97;;;9.33;67.24
80745;BME280;70143;52.396;16.950;2023-05-17T05:46:25;100865.56;;;9.46;66.77
80745;BME280;70143;52.396;16.950;2023-05-17T05:48:51;100878.56;;;9.47;66.71
80745;BME280;70143;52.396;16.950;2023-05-17T05:51:16;100880.22;;;9.53;66.14
80745;BME280;70143;52.396;16.950;2023-05-17T05:53:42;100889.00;;;9.49;66.76
80745;BME280;70143;52.396;16.950;2023-05-17T05:56:08;100893.19;;;9.56;65.93
80745;BME280;70143;52.396;16.950;2023-05-17T05:58:33;100880.69;;;9.70;65.60
80745;BME280;70143;52.396;16.950;2023-05-17T06:00:59;100895.19;;;9.84;65.61
80745;BME280;70143;52.396;16.950;2023-05-17T06:03:25;100878.84;;;9.75;65.48
80745;BME280;70143;52.396;16.950;2023-05-17T06:05:50;100876.38;;;9.69;66.08
80745;BME280;70143;52.396;16.950;2023-05-17T06:08:16;100871.59;;;9.87;65.43
80745;BME280;70143;52.396;16.950;2023-05-17T06:10:41;100891.34;;;10.00;64.13
80745;BME280;70143;52.396;16.950;2023-05-17T06:13:07;100881.84;;;9.96;64.40
80745;BME280;70143;52.396;16.950;2023-05-17T06:15:32;100883.31;;;10.08;63.55
80745;BME280;70143;52.396;16.950;2023-05-17T06:17:58;100896.28;;;10.12;63.39
80745;BME280;70143;52.396;16.950;2023-05-17T06:20:24;100874.38;;;10.17;62.80
80745;BME280;70143;52.396;16.950;2023-05-17T06:22:49;100872.56;;;10.20;63.13
80745;BME280;70143;52.396;16.950;2023-05-17T06:25:15;100878.47;;;10.28;63.00
80745;BME280;70143;52.396;16.950;2023-05-17T06:27:40;100881.66;;;10.41;62.14
80745;BME280;70143;52.396;16.950;2023-05-17T06:30:06;100879.81;;;10.46;61.92
80745;BME280;70143;52.396;16.950;2023-05-17T06:32:32;100877.75;;;10.58;61.77
80745;BME280;70143;52.396;16.950;2023-05-17T06:34:57;100887.00;;;10.71;61.20
80745;BME280;70143;52.396;16.950;2023-05-17T06:37:24;100884.22;;;10.77;61.62
80745;BME280;70143;52.396;16.950;2023-05-17T06:39:50;100895.38;;;10.86;61.03
80745;BME280;70143;52.396;16.950;2023-05-17T06:42:16;100893.75;;;10.80;60.79
80745;BME280;70143;52.396;16.950;2023-05-17T06:44:42;100895.91;;;10.97;60.02
80745;BME280;70143;52.396;16.950;2023-05-17T06:47:07;100899.75;;;10.83;60.94
80745;BME280;70143;52.396;16.950;2023-05-17T06:49:33;100908.75;;;10.73;61.45
80745;BME280;70143;52.396;16.950;2023-05-17T06:51:58;100909.75;;;10.69;62.53
80745;BME280;70143;52.396;16.950;2023-05-17T06:54:24;100915.78;;;10.71;62.36
80745;BME280;70143;52.396;16.950;2023-05-17T06:56:50;100937.38;;;10.81;62.40
80745;BME280;70143;52.396;16.950;2023-05-17T06:59:16;100920.66;;;10.85;62.19
80745;BME280;70143;52.396;16.950;2023-05-17T07:01:41;100949.31;;;10.90;62.36
80745;BME280;70143;52.396;16.950;2023-05-17T07:04:07;100928.09;;;11.00;61.86
80745;BME280;70143;52.396;16.950;2023-05-17T07:06:32;100926.75;;;11.18;62.02
80745;BME280;70143;52.396;16.950;2023-05-17T07:08:57;100932.28;;;11.39;61.70
80745;BME280;70143;52.396;16.950;2023-05-17T07:11:23;100928.72;;;11.42;61.84
80745;BME280;70143;52.396;16.950;2023-05-17T07:13:48;100932.72;;;11.53;61.31
80745;BME280;70143;52.396;16.950;2023-05-17T07:16:14;100942.22;;;11.58;61.37
80745;BME280;70143;52.396;16.950;2023-05-17T07:18:39;100940.88;;;11.74;60.52
80745;BME280;70143;52.396;16.950;2023-05-17T07:21:05;100945.84;;;11.83;60.20
80745;BME280;70143;52.396;16.950;2023-05-17T07:23:30;100938.47;;;11.98;60.08
80745;BME280;70143;52.396;16.950;2023-05-17T07:25:56;100924.78;;;12.16;59.33
80745;BME280;70143;52.396;16.950;2023-05-17T07:28:21;100930.84;;;12.45;58.70
80745;BME280;70143;52.396;16.950;2023-05-17T07:30:47;100938.38;;;12.28;58.51
80745;BME280;70143;52.396;16.950;2023-05-17T07:33:12;100941.56;;;12.66;57.87
80745;BME280;70143;52.396;16.950;2023-05-17T07:35:38;100947.06;;;12.83;58.22
80745;BME280;70143;52.396;16.950;2023-05-17T07:38:04;100947.41;;;12.99;57.58
80745;BME280;70143;52.396;16.950;2023-05-17T07:40:29;100946.84;;;12.89;55.86
80745;BME280;70143;52.396;16.950;2023-05-17T07:42:55;100950.53;;;12.84;56.12
80745;BME280;70143;52.396;16.950;2023-05-17T07:45:20;100950.34;;;13.15;53.55
80745;BME280;70143;52.396;16.950;2023-05-17T07:47:46;100966.66;;;13.25;53.94
80745;BME280;70143;52.396;16.950;2023-05-17T07:50:11;100959.13;;;13.39;52.28
80745;BME280;70143;52.396;16.950;2023-05-17T07:52:39;100967.75;;;13.43;51.85
80745;BME280;70143;52.396;16.950;2023-05-17T07:55:06;100966.97;;;13.41;50.71
80745;BME280;70143;52.396;16.950;2023-05-17T07:57:32;100962.88;;;13.57;51.26
80745;BME280;70143;52.396;16.950;2023-05-17T07:59:58;100965.50;;;13.81;50.89
80745;BME280;70143;52.396;16.950;2023-05-17T08:02:23;100975.31;;;13.76;49.44
80745;BME280;70143;52.396;16.950;2023-05-17T08:04:49;100993.72;;;13.76;48.82
80745;BME280;70143;52.396;16.950;2023-05-17T08:07:14;100977.03;;;13.77;49.78
80745;BME280;70143;52.396;16.950;2023-05-17T08:09:39;100965.50;;;13.81;49.51
80745;BME280;70143;52.396;16.950;2023-05-17T08:12:05;100998.06;;;13.77;49.80
80745;BME280;70143;52.396;16.950;2023-05-17T08:14:30;100945.78;;;13.69;50.10
80745;BME280;70143;52.396;16.950;2023-05-17T08:16:56;100970.22;;;13.71;50.43
80745;BME280;70143;52.396;16.950;2023-05-17T08:19:21;100959.09;;;13.41;51.42
80745;BME280;70143;52.396;16.950;2023-05-17T08:21:48;100956.47;;;13.41;51.95
80745;BME280;70143;52.396;16.950;2023-05-17T08:24:14;100958.41;;;13.36;52.82
80745;BME280;70143;52.396;16.950;2023-05-17T08:26:39;100953.94;;;13.38;52.12
80745;BME280;70143;52.396;16.950;2023-05-17T08:29:05;100952.59;;;13.51;50.82
80745;BME280;70143;52.396;16.950;2023-05-17T08:31:31;100968.16;;;13.07;52.91
80745;BME280;70143;52.396;16.950;2023-05-17T08:33:57;100967.44;;;13.02;53.31
80745;BME280;70143;52.396;16.950;2023-05-17T08:36:23;100972.47;;;13.08;53.39
80745;BME280;70143;52.396;16.950;2023-05-17T08:38:48;100980.97;;;13.16;53.38
80745;BME280;70143;52.396;16.950;2023-05-17T08:41:14;100965.72;;;13.26;52.85
80745;BME280;70143;52.396;16.950;2023-05-17T08:43:40;100970.06;;;13.27;53.30
80745;BME280;70143;52.396;16.950;2023-05-17T08:46:06;100995.44;;;13.28;53.35
80745;BME280;70143;52.396;16.950;2023-05-17T08:48:32;100978.31;;;13.41;52.70
80745;BME280;70143;52.396;16.950;2023-05-17T08:50:59;100970.91;;;13.27;52.80
80745;BME280;70143;52.396;16.950;2023-05-17T08:53:24;101004.50;;;13.19;53.45
80745;BME280;70143;52.396;16.950;2023-05-17T08:55:52;100990.53;;;12.92;55.09
80745;BME280;70143;52.396;16.950;2023-05-17T08:58:24;100994.31;;;13.10;53.91
80745;BME280;70143;52.396;16.950;2023-05-17T09:00:53;101028.16;;;12.92;54.06
80745;BME280;70143;52.396;16.950;2023-05-17T09:03:19;101000.84;;;13.23;52.90
80745;BME280;70143;52.396;16.950;2023-05-17T09:05:46;100994.91;;;13.67;51.74
80745;BME280;70143;52.396;16.950;2023-05-17T09:08:11;100998.03;;;13.78;50.86
80745;BME280;70143;52.396;16.950;2023-05-17T09:10:37;101008.47;;;13.80;49.98
80745;BME280;70143;52.396;16.950;2023-05-17T09:13:02;100977.94;;;13.99;49.02
80745;BME280;70143;52.396;16.950;2023-05-17T09:15:30;100994.75;;;13.95;49.16
80745;BME280;70143;52.396;16.950;2023-05-17T09:17:56;100977.56;;;14.09;49.50
80745;BME280;70143;52.396;16.950;2023-05-17T09:20:26;100990.63;;;14.12;49.63
80745;BME280;70143;52.396;16.950;2023-05-17T09:22:52;100989.66;;;14.14;49.11
80745;BME280;70143;52.396;16.950;2023-05-17T09:25:22;101000.91;;;13.94;49.58
80745;BME280;70143;52.396;16.950;2023-05-17T09:27:51;100970.66;;;13.84;49.38
80745;BME280;70143;52.396;16.950;2023-05-17T09:30:17;100979.47;;;14.27;49.12
80745;BME280;70143;52.396;16.950;2023-05-17T09:32:43;100997.47;;;14.16;48.83
80745;BME280;70143;52.396;16.950;2023-05-17T09:35:09;100983.75;;;14.08;49.69
80745;BME280;70143;52.396;16.950;2023-05-17T09:37:36;100971.47;;;14.30;49.42
80745;BME280;70143;52.396;16.950;2023-05-17T09:40:02;100985.72;;;14.02;50.20
80745;BME280;70143;52.396;16.950;2023-05-17T09:42:27;100998.19;;;14.19;49.60
80745;BME280;70143;52.396;16.950;2023-05-17T09:44:56;100987.44;;;14.04;48.80
80745;BME280;70143;52.396;16.950;2023-05-17T09:47:31;101007.16;;;14.37;48.06
80745;BME280;70143;52.396;16.950;2023-05-17T09:49:58;101011.66;;;14.12;46.81
80745;BME280;70143;52.396;16.950;2023-05-17T09:52:24;100999.88;;;13.98;47.57
80745;BME280;70143;52.396;16.950;2023-05-17T09:54:56;100995.22;;;13.83;47.87
80745;BME280;70143;52.396;16.950;2023-05-17T09:57:24;100988.94;;;13.63;48.39
80745;BME280;70143;52.396;16.950;2023-05-17T09:59:50;100992.13;;;13.95;48.44
80745;BME280;70143;52.396;16.950;2023-05-17T10:02:30;100970.00;;;13.77;48.56
80745;BME280;70143;52.396;16.950;2023-05-17T10:04:56;100976.97;;;13.55;48.43
80745;BME280;70143;52.396;16.950;2023-05-17T10:07:23;100985.38;;;13.88;48.49
80745;BME280;70143;52.396;16.950;2023-05-17T10:09:50;101000.84;;;13.96;49.36
80745;BME280;70143;52.396;16.950;2023-05-17T10:12:17;101004.72;;;14.09;48.53
80745;BME280;70143;52.396;16.950;2023-05-17T10:14:44;100990.06;;;14.04;48.74
80745;BME280;70143;52.396;16.950;2023-05-17T10:17:10;100995.59;;;13.96;49.57
80745;BME280;70143;52.396;16.950;2023-05-17T10:19:36;101011.97;;;13.80;50.08
80745;BME280;70143;52.396;16.950;2023-05-17T10:22:01;100995.31;;;13.56;49.95
80745;BME280;70143;52.396;16.950;2023-05-17T10:24:28;101000.34;;;13.39;50.47
80745;BME280;70143;52.396;16.950;2023-05-17T10:26:57;101000.91;;;13.47;50.26
80745;BME280;70143;52.396;16.950;2023-05-17T10:29:24;100990.78;;;13.36;50.71
80745;BME280;70143;52.396;16.950;2023-05-17T10:31:50;101001.16;;;13.64;50.45
80745;BME280;70143;52.396;16.950;2023-05-17T10:34:17;100993.59;;;13.79;50.11
80745;BME280;70143;52.396;16.950;2023-05-17T10:36:43;101009.38;;;13.79;50.36
80745;BME280;70143;52.396;16.950;2023-05-17T10:39:09;100999.16;;;13.95;49.66
80745;BME280;70143;52.396;16.950;2023-05-17T10:41:39;101019.00;;;14.04;48.36
80745;BME280;70143;52.396;16.950;2023-05-17T10:44:07;101035.56;;;13.82;49.49
80745;BME280;70143;52.396;16.950;2023-05-17T10:46:35;101003.91;;;13.61;50.18
80745;BME280;70143;52.396;16.950;2023-05-17T10:49:00;101009.28;;;13.82;50.49
80745;BME280;70143;52.396;16.950;2023-05-17T10:51:33;100980.94;;;13.90;50.20
80745;BME280;70143;52.396;16.950;2023-05-17T10:56:31;100995.50;;;14.21;49.19
80745;BME280;70143;52.396;16.950;2023-05-17T10:59:28;101009.78;;;13.92;48.02
80745;BME280;70143;52.396;16.950;2023-05-17T11:01:57;101033.41;;;13.93;47.96
80745;BME280;70143;52.396;16.950;2023-05-17T11:04:31;101009.44;;;14.01;47.89
80745;BME280;70143;52.396;16.950;2023-05-17T11:09:45;101031.56;;;14.19;46.78
80745;BME280;70143;52.396;16.950;2023-05-17T11:12:12;101020.97;;;14.43;45.66
80745;BME280;70143;52.396;16.950;2023-05-17T11:17:17;101017.38;;;14.45;45.43
80745;BME280;70143;52.396;16.950;2023-05-17T11:20:03;101029.22;;;14.33;44.89
80745;BME280;70143;52.396;16.950;2023-05-17T11:22:48;101041.78;;;14.27;42.28
80745;BME280;70143;52.396;16.950;2023-05-17T11:25:16;101032.22;;;14.24;42.11
80745;BME280;70143;52.396;16.950;2023-05-17T11:27:50;101026.41;;;14.62;42.24
80745;BME280;70143;52.396;16.950;2023-05-17T11:30:20;101033.91;;;14.93;42.32
80745;BME280;70143;52.396;16.950;2023-05-17T11:32:48;101023.38;;;14.93;42.68
80745;BME280;70143;52.396;16.950;2023-05-17T11:35:16;101016.41;;;15.13;41.79
80745;BME280;70143;52.396;16.950;2023-05-17T11:37:42;101005.88;;;15.13;41.83
80745;BME280;70143;52.396;16.950;2023-05-17T11:40:08;101023.97;;;15.20;38.17
80745;BME280;70143;52.396;16.950;2023-05-17T11:42:36;101010.75;;;15.22;37.10
80745;BME280;70143;52.396;16.950;2023-05-17T11:45:02;101010.91;;;14.97;38.05
80745;BME280;70143;52.396;16.950;2023-05-17T11:47:28;101015.19;;;15.20;37.33
80745;BME280;70143;52.396;16.950;2023-05-17T11:49:55;101026.66;;;15.60;37.94
80745;BME280;70143;52.396;16.950;2023-05-17T11:52:24;101031.38;;;15.52;38.37
80745;BME280;70143;52.396;16.950;2023-05-17T11:54:50;101035.91;;;15.29;39.00
80745;BME280;70143;52.396;16.950;2023-05-17T11:57:17;101062.31;;;15.48;37.37
80745;BME280;70143;52.396;16.950;2023-05-17T11:59:42;101029.50;;;15.14;38.59
80745;BME280;70143;52.396;16.950;2023-05-17T12:02:09;101053.28;;;15.13;37.50
80745;BME280;70143;52.396;16.950;2023-05-17T12:04:36;101024.03;;;15.39;35.51
80745;BME280;70143;52.396;16.950;2023-05-17T12:07:02;101035.31;;;15.43;35.44
80745;BME280;70143;52.396;16.950;2023-05-17T12:09:27;101041.13;;;15.70;34.30
80745;BME280;70143;52.396;16.950;2023-05-17T12:11:53;101038.84;;;16.02;33.50
80745;BME280;70143;52.396;16.950;2023-05-17T12:14:19;101023.44;;;16.12;33.23
80745;BME280;70143;52.396;16.950;2023-05-17T12:16:47;101038.28;;;16.14;32.36
80745;BME280;70143;52.396;16.950;2023-05-17T12:19:19;101036.97;;;16.04;32.36
80745;BME280;70143;52.396;16.950;2023-05-17T12:21:45;101066.88;;;16.24;32.37
80745;BME280;70143;52.396;16.950;2023-05-17T12:24:10;101035.91;;;16.27;31.85
80745;BME280;70143;52.396;16.950;2023-05-17T12:26:41;101055.84;;;16.16;31.88
80745;BME280;70143;52.396;16.950;2023-05-17T12:29:07;101037.75;;;16.44;32.12
80745;BME280;70143;52.396;16.950;2023-05-17T12:31:38;101050.22;;;16.77;31.88
80745;BME280;70143;52.396;16.950;2023-05-17T12:34:05;101058.91;;;16.62;31.89
80745;BME280;70143;52.396;16.950;2023-05-17T12:36:31;101043.88;;;16.64;31.55
80745;BME280;70143;52.396;16.950;2023-05-17T12:38:57;101070.81;;;16.90;30.97
80745;BME280;70143;52.396;16.950;2023-05-17T12:41:24;101047.41;;;16.26;31.98
80745;BME280;70143;52.396;16.950;2023-05-17T12:43:50;101044.47;;;16.32;32.74
80745;BME280;70143;52.396;16.950;2023-05-17T12:46:17;101072.94;;;16.45;32.54
80745;BME280;70143;52.396;16.950;2023-05-17T12:48:44;101060.53;;;16.09;33.64
80745;BME280;70143;52.396;16.950;2023-05-17T12:51:11;101045.25;;;15.96;34.51
80745;BME280;70143;52.396;16.950;2023-05-17T12:53:41;101043.81;;;16.46;33.73
80745;BME280;70143;52.396;16.950;2023-05-17T12:56:08;101047.22;;;16.48;34.12
80745;BME280;70143;52.396;16.950;2023-05-17T12:58:38;101068.38;;;16.10;33.84
80745;BME280;70143;52.396;16.950;2023-05-17T13:01:04;101044.09;;;16.40;33.13
80745;BME280;70143;52.396;16.950;2023-05-17T13:03:29;101035.56;;;16.35;33.93